Time;durP1;ratioP1;P1;durP2;ratioP2;P2;SDS_P1;SDS_P2;PMS_P1;PMS_P2;Temp;Humidity;BMP_temperature;BMP_pressure;BME280_temperature;BME280_humidity;BME280_pressure;Samples;Min_cycle;Max_cycle;Signal;HPM_P1;HPM_P2
2022/08/16 00:01:17;;;;;;;5.60;4.53;;;;;;;20.34;60.16;98014.84;5094362;28;20514;-49
2022/08/16 00:03:44;;;;;;;9.10;4.70;;;;;;;20.24;60.75;98017.63;5092920;28;20030;-49
2022/08/16 00:06:10;;;;;;;11.55;5.22;;;;;;;20.18;60.98;98013.41;5092856;28;20032;-49
2022/08/16 00:08:37;;;;;;;4.65;4.22;;;;;;;20.11;61.01;98014.53;5092834;28;20020;-49
2022/08/16 00:11:09;;;;;;;4.57;4.13;;;;;;;20.03;61.26;98009.00;5094137;28;20520;-49
2022/08/16 00:13:35;;;;;;;7.40;4.78;;;;;;;19.95;63.01;98005.06;5092743;28;20024;-50
2022/08/16 00:16:00;;;;;;;9.38;5.00;;;;;;;19.67;64.81;98006.56;5094018;28;20028;-49
2022/08/16 00:18:26;;;;;;;12.13;5.93;;;;;;;19.30;66.24;98008.63;5093896;28;20016;-48
2022/08/16 00:20:52;;;;;;;10.57;5.75;;;;;;;19.03;67.67;98018.84;5092726;28;20035;-48
2022/08/16 00:23:18;;;;;;;9.57;6.05;;;;;;;18.80;69.38;98013.09;5093931;28;20020;-48
2022/08/16 00:25:44;;;;;;;10.80;5.68;;;;;;;18.64;70.15;98008.84;5093627;28;20111;-47
2022/08/16 00:28:10;;;;;;;10.55;6.45;;;;;;;18.49;70.62;98009.66;5093871;28;20552;-49
2022/08/16 00:30:36;;;;;;;13.40;6.60;;;;;;;18.48;70.89;98008.88;5092424;28;20028;-48
2022/08/16 00:33:02;;;;;;;7.30;5.13;;;;;;;18.53;70.70;98000.91;5093749;28;20023;-49
2022/08/16 00:35:33;;;;;;;10.63;6.68;;;;;;;18.53;70.25;97998.25;5093687;28;20027;-48
2022/08/16 00:38:02;;;;;;;12.20;6.13;;;;;;;18.48;70.28;97998.25;5092269;28;20502;-49
2022/08/16 00:40:58;;;;;;;11.10;6.45;;;;;;;18.51;70.10;97996.91;5093508;28;20067;-49
2022/08/16 00:43:29;;;;;;;8.23;5.97;;;;;;;18.50;70.01;97996.09;5080767;28;20024;-49
2022/08/16 00:46:06;;;;;;;15.05;8.63;;;;;;;18.50;70.11;97997.97;5093508;28;20607;-47
2022/08/16 00:48:31;;;;;;;9.63;6.47;;;;;;;18.53;70.57;97995.59;5093704;28;20031;-47
2022/08/16 00:50:58;;;;;;;11.75;5.65;;;;;;;18.83;69.92;97995.78;5093352;28;20024;-46
2022/08/16 00:53:24;;;;;;;17.40;6.97;;;;;;;19.20;68.56;97998.03;5093293;28;20028;-47
2022/08/16 00:55:53;;;;;;;13.45;6.90;;;;;;;19.33;69.32;97992.09;5093261;28;20087;-47
2022/08/16 00:58:22;;;;;;;12.18;6.45;;;;;;;19.33;69.78;97994.78;5091864;28;20069;-48
2022/08/16 01:00:51;;;;;;;9.52;7.25;;;;;;;19.12;70.28;97991.44;5091874;28;20036;-48
2022/08/16 01:03:19;;;;;;;11.20;6.32;;;;;;;18.97;70.76;97996.78;5093135;28;20099;-48
2022/08/16 01:05:46;;;;;;;10.48;5.63;;;;;;;19.05;70.63;97992.78;5093058;28;20052;-46
2022/08/16 01:08:15;;;;;;;11.00;7.28;;;;;;;19.16;69.66;97991.69;5091718;28;20032;-47
2022/08/16 01:10:41;;;;;;;10.38;6.50;;;;;;;19.03;68.82;97989.59;5092986;28;20020;-47
2022/08/16 01:13:14;;;;;;;9.10;5.78;;;;;;;18.82;68.70;97996.88;5074835;28;20573;-48
2022/08/16 01:15:45;;;;;;;15.73;7.32;;;;;;;18.68;69.19;97993.94;5092914;28;20110;-46
2022/08/16 01:18:16;;;;;;;73.38;52.63;;;;;;;18.59;69.61;97996.34;5093030;28;20027;-47
2022/08/16 01:20:51;;;;;;;15.13;11.90;;;;;;;18.52;69.82;97983.34;5092758;28;20112;-47
2022/08/16 01:23:40;;;;;;;12.93;8.98;;;;;;;18.50;70.00;97988.13;5092238;28;20481;-47
2022/08/16 01:26:06;;;;;;;23.90;8.02;;;;;;;18.49;70.16;97989.22;5092167;28;20052;-47
2022/08/16 01:28:33;;;;;;;14.95;8.63;;;;;;;18.50;70.11;97987.34;5091376;28;20028;-47
2022/08/16 01:30:58;;;;;;;18.83;10.82;;;;;;;18.52;70.21;97986.00;5092639;28;20024;-47
2022/08/16 01:33:24;;;;;;;16.92;9.52;;;;;;;18.50;70.29;97982.81;5091274;28;20027;-47
2022/08/16 01:36:04;;;;;;;6.82;5.35;;;;;;;18.50;70.05;97980.16;5092526;28;20097;-47
2022/08/16 01:38:42;;;;;;;10.15;5.55;;;;;;;18.46;69.65;97983.63;5091117;28;20035;-46
2022/08/16 01:41:14;;;;;;;8.43;5.53;;;;;;;18.39;69.68;97983.94;5092682;28;20451;-47
2022/08/16 01:43:42;;;;;;;10.35;5.22;;;;;;;18.33;69.82;97985.78;5092425;28;20035;-46
2022/08/16 01:46:27;;;;;;;8.25;4.70;;;;;;;18.30;70.26;97990.84;5092351;28;20031;-46
2022/08/16 01:48:56;;;;;;;8.00;4.55;;;;;;;18.30;69.80;97994.28;5092651;28;20028;-48
2022/08/16 01:51:24;;;;;;;7.13;5.13;;;;;;;18.30;69.72;97986.31;5092293;28;20024;-47
2022/08/16 01:53:50;;;;;;;6.97;5.38;;;;;;;18.32;69.70;97984.19;5092296;28;20048;-49
2022/08/16 01:56:16;;;;;;;9.05;5.43;;;;;;;18.31;69.68;97976.47;5092173;28;20072;-46
2022/08/16 01:58:42;;;;;;;84.13;61.42;;;;;;;18.27;69.81;97984.19;5092345;28;20487;-49
2022/08/16 02:01:07;;;;;;;12.93;10.25;;;;;;;18.26;69.80;97984.47;5092143;28;20394;-49
2022/08/16 02:03:33;;;;;;;14.18;6.72;;;;;;;18.21;69.98;97985.28;5090794;28;20028;-48
2022/08/16 02:05:59;;;;;;;11.73;6.00;;;;;;;18.21;70.54;97989.75;5092104;28;20505;-48
2022/08/16 02:08:25;;;;;;;10.07;5.93;;;;;;;18.23;70.63;97977.84;5092057;28;20024;-48
2022/08/16 02:10:53;;;;;;;6.78;5.25;;;;;;;18.27;70.49;97983.38;5092000;28;20031;-48
2022/08/16 02:13:19;;;;;;;6.95;5.05;;;;;;;18.31;70.29;97989.75;5091991;28;20047;-48
2022/08/16 02:15:49;;;;;;;13.65;6.35;;;;;;;18.36;69.99;97984.44;5090645;28;20036;-48
2022/08/16 02:18:15;;;;;;;11.43;5.78;;;;;;;18.45;69.89;97979.38;5091906;28;20565;-48
2022/08/16 02:20:48;;;;;;;16.83;5.40;;;;;;;18.62;69.93;97976.44;5091872;28;20513;-48
2022/08/16 02:23:14;;;;;;;9.23;4.80;;;;;;;18.91;69.10;97977.44;5073779;28;20039;-48
2022/08/16 02:25:40;;;;;;;5.32;4.72;;;;;;;19.10;68.13;97980.25;5091860;28;20382;-47
2022/08/16 02:28:06;;;;;;;11.60;5.38;;;;;;;19.07;66.99;97985.31;5091589;28;20056;-48
2022/08/16 02:30:35;;;;;;;11.00;5.60;;;;;;;18.86;67.12;97982.75;5091743;28;20107;-48
2022/08/16 02:33:02;;;;;;;8.63;5.38;;;;;;;18.71;67.44;97977.44;5090515;28;20023;-48
2022/08/16 02:35:28;;;;;;;7.55;5.13;;;;;;;18.59;67.91;97987.59;5092341;28;20481;-48
2022/08/16 02:37:54;;;;;;;12.48;5.38;;;;;;;18.49;68.11;97989.22;5077747;28;20024;-48
2022/08/16 02:40:22;;;;;;;8.20;5.07;;;;;;;18.43;68.29;97986.81;5095902;28;20032;-48
2022/08/16 02:42:49;;;;;;;9.10;5.43;;;;;;;18.38;68.07;97986.84;5095903;28;20081;-48
2022/08/16 02:45:16;;;;;;;7.88;5.05;;;;;;;18.38;68.48;97990.28;5095842;28;20021;-48
2022/08/16 02:47:42;;;;;;;8.43;5.07;;;;;;;18.45;68.26;97988.16;5094760;28;20028;-48
2022/08/16 02:50:08;;;;;;;10.75;5.97;;;;;;;18.42;67.96;97987.91;5094405;28;20596;-48
2022/08/16 02:52:34;;;;;;;9.43;5.57;;;;;;;18.38;68.25;97992.94;5095705;28;20020;-48
2022/08/16 02:55:00;;;;;;;14.82;5.90;;;;;;;18.37;68.36;97978.06;5077534;28;20080;-47
2022/08/16 02:57:25;;;;;;;10.90;6.30;;;;;;;18.49;68.19;97985.75;5094246;28;20379;-48
2022/08/16 02:59:51;;;;;;;13.15;7.43;;;;;;;18.61;68.10;97983.59;5095475;28;20019;-48
2022/08/16 03:02:17;;;;;;;11.75;5.55;;;;;;;18.73;67.43;97980.63;5095444;28;20047;-49
2022/08/16 03:04:43;;;;;;;5.75;4.35;;;;;;;18.81;66.80;97980.09;5095411;28;20020;-48
2022/08/16 03:07:10;;;;;;;7.45;5.00;;;;;;;18.79;66.02;97982.22;5094101;28;20024;-49
2022/08/16 03:09:36;;;;;;;8.18;5.72;;;;;;;18.61;66.48;97980.94;5095293;28;20020;-48
2022/08/16 03:12:04;;;;;;;6.22;5.40;;;;;;;18.48;67.06;97981.50;5094099;28;20021;-48
2022/08/16 03:14:31;;;;;;;8.05;5.88;;;;;;;18.32;67.61;97978.88;5093935;28;20020;-47
2022/08/16 03:17:00;;;;;;;8.82;5.45;;;;;;;18.19;68.14;97984.75;5095481;28;20393;-49
2022/08/16 03:19:28;;;;;;;8.60;5.28;;;;;;;18.24;68.43;97983.94;5095080;28;20019;-49
2022/08/16 03:21:54;;;;;;;8.90;5.93;;;;;;;18.31;67.92;97973.81;5093803;28;20397;-47
2022/08/16 03:24:20;;;;;;;8.63;5.40;;;;;;;18.33;67.87;97974.34;5095286;28;20024;-49
2022/08/16 03:26:45;;;;;;;10.65;6.65;;;;;;;18.28;67.76;97980.47;5094795;28;20455;-49
2022/08/16 03:29:11;;;;;;;9.27;5.78;;;;;;;18.27;67.86;97976.22;5095060;28;20027;-49
2022/08/16 03:31:37;;;;;;;11.35;6.13;;;;;;;18.33;67.65;97979.66;5094940;28;20149;-49
2022/08/16 03:34:02;;;;;;;10.02;7.13;;;;;;;18.33;67.66;97974.34;5093625;28;20016;-49
2022/08/16 03:36:28;;;;;;;6.93;5.13;;;;;;;18.43;67.59;97977.00;5094777;28;20066;-49
2022/08/16 03:38:53;;;;;;;15.70;6.65;;;;;;;18.54;67.36;97981.22;5093430;28;20042;-50
2022/08/16 03:41:19;;;;;;;8.38;5.65;;;;;;;18.74;67.26;97988.34;5093437;28;20024;-49
2022/08/16 03:43:45;;;;;;;11.25;5.30;;;;;;;18.93;66.25;97988.59;5094710;28;20031;-50
2022/08/16 03:46:11;;;;;;;15.88;5.65;;;;;;;18.99;65.85;97988.56;5092761;28;20025;-49
2022/08/16 03:48:38;;;;;;;8.38;5.85;;;;;;;19.07;66.05;97988.78;5094627;28;20030;-49
2022/08/16 03:51:10;;;;;;;8.85;5.53;;;;;;;19.26;65.34;97991.63;5093320;28;20512;-50
2022/08/16 03:53:37;;;;;;;12.10;5.70;;;;;;;19.32;64.28;97992.41;5094572;28;20028;-48
2022/08/16 03:56:04;;;;;;;13.73;5.60;;;;;;;19.16;64.27;97987.16;5093150;28;20564;-49
2022/08/16 03:58:30;;;;;;;7.80;5.80;;;;;;;18.93;64.85;97985.94;5094311;28;20031;-49
2022/08/16 04:00:55;;;;;;;6.03;5.13;;;;;;;18.66;65.11;97988.91;5094359;28;20036;-49
2022/08/16 04:03:21;;;;;;;13.15;7.38;;;;;;;18.41;65.93;97984.44;5094349;28;20490;-49
2022/08/16 04:05:50;;;;;;;9.32;5.50;;;;;;;18.20;66.45;97988.19;5092911;28;20153;-49
2022/08/16 04:08:19;;;;;;;10.77;5.13;;;;;;;18.03;66.98;97981.28;5094451;28;20104;-48
2022/08/16 04:10:45;;;;;;;14.93;12.73;;;;;;;17.90;67.46;97982.59;5094385;28;20485;-49
2022/08/16 04:13:11;;;;;;;9.70;6.00;;;;;;;17.86;67.72;97981.53;5092807;28;20120;-49
2022/08/16 04:15:37;;;;;;;15.38;6.80;;;;;;;17.78;68.02;97982.81;5094062;28;20024;-50
2022/08/16 04:18:03;;;;;;;10.18;5.05;;;;;;;17.73;68.23;97985.50;5093999;28;20397;-49
2022/08/16 04:20:30;;;;;;;8.50;5.20;;;;;;;17.69;68.53;97983.63;5093980;28;20646;-48
2022/08/16 04:22:56;;;;;;;10.57;5.88;;;;;;;17.67;68.51;97981.25;5092634;28;20020;-49
2022/08/16 04:25:22;;;;;;;11.40;5.85;;;;;;;17.65;68.83;97975.41;5093879;28;20103;-48
2022/08/16 04:27:48;;;;;;;13.55;8.60;;;;;;;17.57;69.21;97975.94;5093656;28;20124;-48
2022/08/16 04:30:15;;;;;;;9.52;5.88;;;;;;;17.58;69.35;97988.13;5093752;28;20024;-49
2022/08/16 04:32:42;;;;;;;6.93;5.30;;;;;;;17.63;68.95;97977.53;5093752;28;20032;-49
2022/08/16 04:35:11;;;;;;;7.45;5.80;;;;;;;17.60;68.75;97987.84;5093706;28;20058;-48
2022/08/16 04:37:37;;;;;;;6.30;5.30;;;;;;;17.57;68.79;97986.53;5093693;28;20024;-47
2022/08/16 04:40:04;;;;;;;11.65;5.50;;;;;;;17.55;69.16;97981.47;5093561;28;20089;-48
2022/08/16 04:42:30;;;;;;;10.38;5.25;;;;;;;17.57;69.10;97986.53;5093624;28;20036;-49
2022/08/16 04:44:57;;;;;;;10.02;5.45;;;;;;;17.59;68.73;97984.41;5092194;28;20398;-48
2022/08/16 04:47:27;;;;;;;8.85;5.05;;;;;;;17.58;68.88;97973.00;5093365;28;20118;-47
2022/08/16 04:49:53;;;;;;;8.27;5.90;;;;;;;17.58;68.95;97988.91;5093365;28;20020;-47
2022/08/16 04:52:20;;;;;;;8.75;5.47;;;;;;;17.65;68.88;97988.66;5093592;28;20263;-45
2022/08/16 04:54:45;;;;;;;11.68;6.03;;;;;;;17.70;68.54;97988.66;5093362;28;20505;-46
2022/08/16 04:57:11;;;;;;;8.88;6.18;;;;;;;17.70;68.89;97993.97;5091877;28;20028;-47
2022/08/16 04:59:37;;;;;;;11.48;5.70;;;;;;;17.77;68.55;97988.44;5092257;28;20031;-47
2022/08/16 05:02:03;;;;;;;11.88;5.78;;;;;;;17.83;68.37;97995.34;5093124;28;20032;-46
2022/08/16 05:04:30;;;;;;;8.57;5.68;;;;;;;17.92;68.05;98000.94;5091804;28;20516;-47
2022/08/16 05:06:55;;;;;;;11.68;5.93;;;;;;;18.35;67.05;97996.94;5093062;28;20031;-47
2022/08/16 05:09:21;;;;;;;12.40;6.38;;;;;;;18.93;64.84;97993.09;5091968;28;20020;-47
2022/08/16 05:11:47;;;;;;;9.38;5.50;;;;;;;19.52;63.23;97992.28;5091677;28;20115;-47
2022/08/16 05:14:12;;;;;;;13.93;5.30;;;;;;;20.17;61.31;97991.31;5091650;28;20055;-47
2022/08/16 05:16:39;;;;;;;9.20;7.10;;;;;;;20.64;58.93;97997.00;5092954;28;20143;-47
2022/08/16 05:19:06;;;;;;;6.93;5.68;;;;;;;20.85;57.65;98005.59;5074675;28;20032;-49
2022/08/16 05:21:34;;;;;;;9.98;4.88;;;;;;;21.02;56.91;98005.13;5091481;28;20054;-49
2022/08/16 05:24:00;;;;;;;7.55;5.40;;;;;;;21.27;56.15;98004.81;5092808;28;20436;-49
2022/08/16 05:26:29;;;;;;;6.65;4.78;;;;;;;21.50;55.52;97995.19;5092479;28;20437;-49
2022/08/16 05:28:56;;;;;;;11.68;5.78;;;;;;;22.00;54.87;97996.59;5092730;28;20021;-49
2022/08/16 05:31:24;;;;;;;9.98;4.43;;;;;;;22.36;52.88;97994.16;5091270;28;20028;-48
2022/08/16 05:33:50;;;;;;;5.97;4.57;;;;;;;22.57;51.99;97991.88;5092629;28;20016;-49
2022/08/16 05:36:15;;;;;;;10.80;5.68;;;;;;;22.86;52.50;97988.94;5092535;28;20024;-49
2022/08/16 05:38:41;;;;;;;10.50;5.40;;;;;;;23.11;51.85;97995.66;5092415;28;20516;-47
2022/08/16 05:41:07;;;;;;;7.43;4.47;;;;;;;23.26;50.84;97994.56;5092371;28;20106;-48
2022/08/16 05:43:33;;;;;;;5.32;4.47;;;;;;;23.37;50.67;97995.13;5092407;28;20055;-48
2022/08/16 05:45:59;;;;;;;8.82;4.53;;;;;;;23.42;49.88;97997.72;5091059;28;20031;-46
2022/08/16 05:48:24;;;;;;;11.13;4.63;;;;;;;23.55;49.34;97993.41;5092234;28;20032;-48
2022/08/16 05:50:50;;;;;;;9.95;5.07;;;;;;;23.94;48.84;98005.41;5092312;28;20077;-47
2022/08/16 05:53:16;;;;;;;8.77;4.22;;;;;;;24.51;47.60;97999.47;5092272;28;20028;-47
2022/08/16 05:55:42;;;;;;;6.93;4.75;;;;;;;25.06;46.22;98003.59;5092205;28;20024;-47
2022/08/16 05:58:07;;;;;;;12.02;4.80;;;;;;;25.63;44.55;98000.84;5092139;28;20017;-48
2022/08/16 06:00:33;;;;;;;12.20;5.32;;;;;;;26.18;43.70;97994.03;5090834;28;20024;-49
2022/08/16 06:02:59;;;;;;;8.00;5.07;;;;;;;26.67;42.72;97994.53;5090832;28;20032;-49
2022/08/16 06:05:24;;;;;;;11.88;4.35;;;;;;;27.21;41.41;97993.94;5092025;28;20020;-48
2022/08/16 06:07:51;;;;;;;11.75;5.32;;;;;;;27.77;40.10;97992.88;5092096;28;20454;-48
2022/08/16 06:10:17;;;;;;;12.38;5.10;;;;;;;28.13;39.30;97991.47;5091774;28;20016;-48
2022/08/16 06:12:46;;;;;;;20.15;5.90;;;;;;;28.63;38.48;97999.38;5091995;28;20024;-48
2022/08/16 06:15:18;;;;;;;6.30;5.30;;;;;;;29.12;37.57;97987.78;5091979;28;20016;-49
2022/08/16 06:17:44;;;;;;;6.82;4.65;;;;;;;29.54;36.12;97995.59;5092014;28;20501;-49
2022/08/16 06:20:17;;;;;;;14.48;5.30;;;;;;;30.12;35.61;97989.03;5091864;28;20493;-48
2022/08/16 06:22:44;;;;;;;8.50;4.78;;;;;;;30.67;33.76;97982.72;5092209;28;20107;-48
2022/08/16 06:25:11;;;;;;;14.60;5.00;;;;;;;31.13;33.21;97986.88;5091937;28;20046;-49
2022/08/16 06:27:38;;;;;;;8.82;4.60;;;;;;;31.41;32.60;97990.22;5091699;28;20054;-48
2022/08/16 06:30:09;;;;;;;9.57;5.28;;;;;;;31.83;31.92;97986.00;5091795;28;20074;-48
2022/08/16 06:32:35;;;;;;;6.28;4.07;;;;;;;32.12;31.15;97992.00;5090570;28;20115;-48
2022/08/16 06:35:01;;;;;;;8.63;4.35;;;;;;;32.34;30.42;97996.66;5091755;28;20035;-48
2022/08/16 06:37:26;;;;;;;7.43;4.50;;;;;;;32.61;30.41;97991.31;5091847;28;20358;-48
2022/08/16 06:39:52;;;;;;;6.93;4.25;;;;;;;32.78;29.63;97990.81;5091694;28;20021;-48
2022/08/16 06:42:18;;;;;;;6.50;4.03;;;;;;;32.81;29.72;97983.84;5090346;28;20081;-49
2022/08/16 06:44:43;;;;;;;8.93;4.20;;;;;;;32.87;30.24;97992.47;5090382;28;20020;-50
2022/08/16 06:47:09;;;;;;;8.82;3.58;;;;;;;33.12;29.69;97998.28;5090339;28;20490;-49
2022/08/16 06:49:35;;;;;;;6.82;3.90;;;;;;;33.50;28.60;97986.34;5091611;28;20020;-48
2022/08/16 06:52:01;;;;;;;8.00;4.40;;;;;;;33.55;28.63;97983.31;5091533;28;20031;-48
2022/08/16 06:54:26;;;;;;;10.45;4.10;;;;;;;33.78;28.81;97982.44;5091605;28;20490;-49
2022/08/16 06:56:52;;;;;;;7.85;4.10;;;;;;;33.74;28.77;97982.41;5090228;28;20020;-48
2022/08/16 06:59:18;;;;;;;8.73;4.50;;;;;;;33.54;28.91;97983.69;5091524;28;20111;-50
2022/08/16 07:01:43;;;;;;;11.43;4.35;;;;;;;33.47;28.89;97980.91;5091768;28;20024;-49
2022/08/16 07:04:09;;;;;;;10.43;4.03;;;;;;;33.68;29.17;97975.72;5091487;28;20020;-50
2022/08/16 07:06:34;;;;;;;13.38;3.92;;;;;;;34.11;28.30;97972.66;5090206;28;20020;-50
2022/08/16 07:09:00;;;;;;;10.20;4.95;;;;;;;34.15;27.71;97970.81;5090111;28;20505;-50
2022/08/16 07:11:26;;;;;;;5.55;3.63;;;;;;;33.80;28.23;97977.41;5091462;28;20409;-50
2022/08/16 07:13:52;;;;;;;12.63;5.03;;;;;;;33.59;28.40;97984.16;5091407;28;20028;-50
2022/08/16 07:16:18;;;;;;;9.73;4.43;;;;;;;34.07;29.71;97980.00;5090043;28;20063;-49
2022/08/16 07:18:44;;;;;;;11.23;4.65;;;;;;;34.73;29.23;97981.03;5089995;28;20391;-48
2022/08/16 07:21:14;;;;;;;5.72;3.80;;;;;;;35.22;28.35;97980.97;5091359;28;20508;-48
2022/08/16 07:23:42;;;;;;;7.97;3.85;;;;;;;35.40;28.05;97981.84;5095379;28;20055;-48
2022/08/16 07:26:11;;;;;;;11.30;4.15;;;;;;;36.22;27.07;97978.56;5094976;28;20117;-49
2022/08/16 07:28:37;;;;;;;10.50;4.47;;;;;;;37.04;26.22;97976.97;5095102;28;20437;-49
2022/08/16 07:31:03;;;;;;;15.25;4.68;;;;;;;36.75;25.73;97974.31;5094923;28;20077;-49
2022/08/16 07:33:33;;;;;;;13.63;4.40;;;;;;;36.74;25.47;97975.47;5094961;28;20502;-47
2022/08/16 07:35:59;;;;;;;10.63;3.90;;;;;;;36.82;25.22;97968.03;5095069;28;20093;-49
2022/08/16 07:38:26;;;;;;;11.63;4.20;;;;;;;37.36;24.26;97974.94;5093424;28;20411;-50
2022/08/16 07:40:55;;;;;;;9.93;3.90;;;;;;;38.13;22.99;97976.16;5094764;28;20056;-50
2022/08/16 07:43:22;;;;;;;13.68;4.38;;;;;;;39.04;21.33;97977.75;5094711;28;20035;-50
2022/08/16 07:45:49;;;;;;;6.95;3.30;;;;;;;39.81;20.82;97984.69;5093362;28;20034;-51
2022/08/16 07:48:14;;;;;;;11.63;3.63;;;;;;;39.57;20.82;97981.09;5094629;28;20028;-50
2022/08/16 07:50:42;;;;;;;7.45;3.35;;;;;;;40.26;19.80;97975.41;5093295;28;20126;-50
2022/08/16 07:53:08;;;;;;;8.10;3.13;;;;;;;41.15;19.16;97984.09;5093222;28;20028;-49
2022/08/16 07:55:34;;;;;;;21.98;5.82;;;;;;;41.12;18.97;97984.94;5076383;28;20020;-49
2022/08/16 07:58:01;;;;;;;27.75;8.52;;;;;;;40.04;20.00;97988.69;5094360;28;20039;-50
2022/08/16 08:00:27;;;;;;;18.73;4.90;;;;;;;39.89;20.62;97988.91;5093113;28;20048;-49
2022/08/16 08:02:54;;;;;;;12.27;4.78;;;;;;;39.47;20.61;97982.00;5094322;28;20054;-48
2022/08/16 08:05:22;;;;;;;37.03;15.95;;;;;;;39.46;21.08;97981.22;5094232;28;20103;-49
2022/08/16 08:07:48;;;;;;;16.75;5.20;;;;;;;39.20;21.72;97985.44;5094512;28;20078;-50
2022/08/16 08:10:14;;;;;;;12.73;5.05;;;;;;;39.06;21.52;97991.84;5094226;28;20062;-49
2022/08/16 08:12:42;;;;;;;7.97;3.78;;;;;;;39.10;21.59;97989.84;5092874;28;20077;-49
2022/08/16 08:15:10;;;;;;;11.10;4.03;;;;;;;39.71;21.07;97983.63;5092879;28;20024;-49
2022/08/16 08:17:38;;;;;;;14.30;4.18;;;;;;;39.73;20.63;97989.50;5094131;28;20028;-49
2022/08/16 08:20:09;;;;;;;13.40;4.82;;;;;;;38.80;21.73;97989.72;5093992;28;20142;-50
2022/08/16 08:22:36;;;;;;;9.02;3.63;;;;;;;38.69;22.16;97985.13;5094101;28;20032;-48
2022/08/16 08:25:02;;;;;;;6.07;3.55;;;;;;;38.67;22.75;97986.72;5094217;28;20051;-48
2022/08/16 08:27:31;;;;;;;14.40;4.80;;;;;;;38.76;22.73;97978.81;5093753;28;20479;-49
2022/08/16 08:29:57;;;;;;;23.45;5.38;;;;;;;38.68;22.99;97983.56;5093876;28;20383;-50
2022/08/16 08:32:27;;;;;;;22.23;5.72;;;;;;;38.63;23.16;97983.22;5093755;28;20020;-49
2022/08/16 08:34:57;;;;;;;5.45;3.15;;;;;;;38.41;22.97;97988.84;5093748;28;20030;-48
2022/08/16 08:37:24;;;;;;;14.95;4.07;;;;;;;38.92;22.67;97981.78;5094017;28;20073;-48
2022/08/16 08:39:50;;;;;;;14.50;4.53;;;;;;;39.71;22.18;97978.13;5093837;28;20103;-50
2022/08/16 08:42:16;;;;;;;12.15;3.72;;;;;;;40.12;21.54;97979.16;5093639;28;20023;-49
2022/08/16 08:44:41;;;;;;;7.03;3.50;;;;;;;40.39;21.06;97986.59;5093537;28;20020;-50
2022/08/16 08:47:07;;;;;;;15.35;3.95;;;;;;;41.14;20.61;97979.81;5092152;28;20034;-50
2022/08/16 08:49:35;;;;;;;8.48;3.17;;;;;;;41.27;20.17;97979.97;5093508;28;20036;-49
2022/08/16 08:52:01;;;;;;;8.40;3.30;;;;;;;41.52;20.07;97968.44;5093311;28;20032;-49
2022/08/16 08:54:26;;;;;;;15.52;4.30;;;;;;;42.35;19.25;97981.16;5093304;28;20085;-50
2022/08/16 08:56:53;;;;;;;25.63;6.45;;;;;;;42.21;19.22;97970.47;5093320;28;20107;-50
2022/08/16 08:59:19;;;;;;;15.85;4.95;;;;;;;42.35;19.31;97975.63;5093490;28;20040;-48
2022/08/16 09:01:46;;;;;;;21.83;8.25;;;;;;;42.80;19.12;97968.59;5093234;28;20024;-47
2022/08/16 09:04:12;;;;;;;33.70;7.03;;;;;;;42.36;19.81;97973.66;5093361;28;20027;-52
2022/08/16 09:06:40;;;;;;;13.63;4.32;;;;;;;42.65;18.76;97965.47;5093121;28;20102;-50
2022/08/16 09:09:08;;;;;;;14.82;4.50;;;;;;;43.23;18.32;97959.94;5093008;28;20036;-51
2022/08/16 09:11:35;;;;;;;28.65;7.30;;;;;;;43.19;18.30;97961.25;5093003;28;20032;-51
2022/08/16 09:14:01;;;;;;;29.52;6.22;;;;;;;42.67;18.39;97963.03;5092846;28;20085;-53
2022/08/16 09:16:27;;;;;;;16.70;4.70;;;;;;;43.09;17.35;97952.06;5092983;28;20012;-53
2022/08/16 09:18:52;;;;;;;8.95;3.55;;;;;;;43.17;17.73;97958.16;5092815;28;20396;-51
2022/08/16 09:21:19;;;;;;;18.17;5.93;;;;;;;43.27;17.10;97955.13;5092794;28;20474;-52
2022/08/16 09:23:45;;;;;;;10.27;3.40;;;;;;;43.37;17.07;97960.78;5093077;28;20028;-52
2022/08/16 09:26:13;;;;;;;15.82;5.43;;;;;;;44.01;16.46;97953.31;5092387;28;20044;-50
2022/08/16 09:28:39;;;;;;;9.50;3.80;;;;;;;44.50;15.38;97954.13;5092707;28;20021;-52
2022/08/16 09:31:06;;;;;;;11.25;5.68;;;;;;;44.64;15.21;97943.34;5091385;28;20048;-51
2022/08/16 09:33:32;;;;;;;13.38;4.30;;;;;;;44.67;15.33;97950.75;5092705;28;20508;-51
2022/08/16 09:35:58;;;;;;;9.40;3.40;;;;;;;44.11;15.16;97951.41;5091232;28;20027;-52
2022/08/16 09:38:25;;;;;;;10.30;3.85;;;;;;;42.83;16.84;97957.47;5092410;28;20020;-51
2022/08/16 09:40:51;;;;;;;21.77;4.05;;;;;;;42.44;17.54;97952.97;5092379;28;20059;-50
2022/08/16 09:43:19;;;;;;;12.38;3.00;;;;;;;42.82;16.98;97949.63;5092458;28;20097;-52
2022/08/16 09:45:46;;;;;;;11.23;3.55;;;;;;;43.17;16.46;97955.41;5090657;28;20028;-51
2022/08/16 09:48:14;;;;;;;25.40;6.40;;;;;;;43.06;17.11;97948.16;5092341;28;20020;-51
2022/08/16 09:50:42;;;;;;;29.85;7.80;;;;;;;43.37;17.31;97946.97;5092272;28;20028;-51
2022/08/16 09:53:12;;;;;;;21.17;5.40;;;;;;;44.14;16.05;97945.00;5092217;28;20039;-51
2022/08/16 09:55:39;;;;;;;18.20;5.20;;;;;;;43.91;15.95;97943.34;5090893;28;20028;-51
2022/08/16 09:58:05;;;;;;;8.80;3.55;;;;;;;43.88;15.73;97947.75;5092116;28;20020;-49
2022/08/16 10:00:32;;;;;;;8.18;3.20;;;;;;;44.14;15.16;97942.22;5090943;28;20055;-51
2022/08/16 10:02:57;;;;;;;9.05;3.30;;;;;;;44.56;14.56;97935.75;5092219;28;20027;-51
2022/08/16 10:05:24;;;;;;;13.93;5.07;;;;;;;44.08;15.18;97935.72;5092193;28;20028;-51
2022/08/16 10:07:51;;;;;;;11.52;3.47;;;;;;;44.16;14.89;97934.25;5092060;28;20035;-52
2022/08/16 10:10:21;;;;;;;6.72;3.20;;;;;;;44.55;14.56;97934.94;5092057;28;20397;-50
2022/08/16 10:15:34;;;;;;;6.15;2.92;;;;;;;42.90;15.76;97945.47;5092286;28;20097;-52
2022/08/16 10:18:06;;;;;;;5.75;2.90;;;;;;;42.44;15.96;97941.94;5091867;28;20016;-52
2022/08/16 10:20:36;;;;;;;9.55;5.50;;;;;;;42.18;16.37;97935.47;5091939;28;20036;-51
2022/08/16 10:23:05;;;;;;;7.28;3.67;;;;;;;42.48;16.39;97931.59;5091964;28;20107;-51
2022/08/16 10:25:31;;;;;;;3.45;2.78;;;;;;;42.42;16.18;97923.06;5091932;28;20031;-51
2022/08/16 10:27:56;;;;;;;9.18;3.22;;;;;;;42.03;16.26;97929.53;5091657;28;20044;-51
2022/08/16 10:30:22;;;;;;;29.52;6.53;;;;;;;41.47;17.00;97917.34;5091824;28;20035;-52
2022/08/16 10:32:48;;;;;;;7.28;3.00;;;;;;;41.42;16.90;97919.88;5090487;28;20127;-52
2022/08/16 10:35:14;;;;;;;7.32;3.40;;;;;;;41.67;16.59;97922.84;5090592;28;20099;-52
2022/08/16 10:37:39;;;;;;;5.47;3.25;;;;;;;41.16;17.18;97935.34;5091811;28;20065;-52
2022/08/16 10:40:08;;;;;;;5.50;2.90;;;;;;;40.20;16.97;97922.09;5091629;28;20073;-52
2022/08/16 10:42:34;;;;;;;9.45;3.70;;;;;;;40.39;17.13;97929.66;5091669;28;20020;-51
2022/08/16 10:45:01;;;;;;;9.07;2.80;;;;;;;40.91;16.39;97911.81;5091750;28;20032;-52
2022/08/16 10:47:28;;;;;;;5.32;2.60;;;;;;;41.61;15.62;97924.56;5091751;28;20034;-52
2022/08/16 10:49:54;;;;;;;4.47;2.83;;;;;;;41.06;15.70;97918.59;5091658;28;20523;-52
2022/08/16 10:52:21;;;;;;;20.30;3.85;;;;;;;40.99;15.95;97916.00;5091557;28;20020;-50
2022/08/16 10:54:47;;;;;;;124.93;11.38;;;;;;;41.14;15.60;97919.22;5091590;28;20098;-52
2022/08/16 10:57:13;;;;;;;6.45;3.13;;;;;;;41.23;15.97;97907.66;5092053;28;20446;-51
2022/08/16 10:59:40;;;;;;;5.20;2.30;;;;;;;41.74;15.92;97912.84;5095492;28;20028;-52
2022/08/16 11:02:09;;;;;;;4.45;2.30;;;;;;;41.75;15.24;97908.91;5095556;28;20524;-51
2022/08/16 11:04:35;;;;;;;4.60;2.10;;;;;;;41.19;15.17;97916.00;5095464;28;20020;-52
2022/08/16 11:07:03;;;;;;;3.72;2.15;;;;;;;40.54;15.63;97913.66;5095411;28;20031;-53
2022/08/16 11:09:28;;;;;;;9.35;2.55;;;;;;;40.07;16.32;97919.16;5095424;28;20436;-53
2022/08/16 11:11:54;;;;;;;3.72;2.53;;;;;;;39.65;16.42;97907.59;5095346;28;20081;-52
2022/08/16 11:14:20;;;;;;;6.22;2.55;;;;;;;39.54;16.77;97910.47;5095367;28;20063;-51
2022/08/16 11:16:45;;;;;;;5.60;2.60;;;;;;;39.42;16.40;97917.34;5093902;28;20039;-51
2022/08/16 11:19:11;;;;;;;4.57;2.47;;;;;;;39.42;16.85;97914.59;5093847;28;20393;-51
2022/08/16 11:21:37;;;;;;;4.82;2.50;;;;;;;39.51;17.18;97920.34;5095193;28;20504;-51
2022/08/16 11:24:04;;;;;;;4.22;2.58;;;;;;;39.45;16.97;97922.00;5095427;28;20066;-51
2022/08/16 11:26:30;;;;;;;5.05;2.78;;;;;;;39.29;17.40;97910.81;5093491;28;20043;-51
2022/08/16 11:28:56;;;;;;;4.05;2.40;;;;;;;39.32;17.40;97912.72;5095069;28;20057;-52
2022/08/16 11:31:23;;;;;;;3.75;2.38;;;;;;;39.70;17.56;97912.63;5094957;28;20012;-51